Time;durP1;ratioP1;P1;durP2;ratioP2;P2;SDS_P1;SDS_P2;PMS_P1;PMS_P2;Temp;Humidity;BMP_temperature;BMP_pressure;BME280_temperature;BME280_humidity;BME280_pressure;Samples;Min_cycle;Max_cycle;Signal;HPM_P1;HPM_P2
2023/08/29 00:00:26;;;;;;;2.97;2.40;;;;;;;18.17;58.53;96855.53;5072564;28;20589;-73
2023/08/29 00:02:52;;;;;;;3.27;2.53;;;;;;;18.13;58.60;96852.50;5081045;28;20269;-74
2023/08/29 00:05:18;;;;;;;4.33;2.30;;;;;;;18.11;58.79;96844.72;5087663;28;20186;-74
2023/08/29 00:07:44;;;;;;;4.30;2.27;;;;;;;18.10;58.83;96847.59;5079483;28;20427;-73
2023/08/29 00:10:09;;;;;;;2.13;2.03;;;;;;;18.12;58.72;96842.91;5086914;28;20581;-73
2023/08/29 00:12:35;;;;;;;3.60;2.70;;;;;;;18.12;58.67;96845.56;5088003;28;20194;-75
2023/08/29 00:15:03;;;;;;;5.07;3.00;;;;;;;18.09;58.79;96841.47;5085348;28;20185;-72
2023/08/29 00:17:29;;;;;;;4.97;2.63;;;;;;;18.12;58.86;96842.91;5086835;28;20182;-75
2023/08/29 00:19:54;;;;;;;2.67;2.40;;;;;;;18.11;58.99;96835.97;5090319;28;20440;-72
2023/08/29 00:22:20;;;;;;;4.40;2.50;;;;;;;18.11;58.66;96831.47;5055294;28;20177;-73
2023/08/29 00:24:47;;;;;;;3.03;2.73;;;;;;;18.14;58.89;96842.69;5043911;28;20190;-74
2023/08/29 00:27:12;;;;;;;5.43;2.80;;;;;;;18.12;59.15;96834.94;5014966;28;20656;-74
2023/08/29 00:29:38;;;;;;;2.70;2.50;;;;;;;18.11;58.99;96833.31;5051972;28;20519;-73
2023/08/29 00:32:04;;;;;;;3.30;2.70;;;;;;;18.11;58.75;96826.16;5066734;28;20247;-73
2023/08/29 00:34:29;;;;;;;3.40;2.90;;;;;;;18.10;58.95;96839.63;5089080;28;20221;-72
2023/08/29 00:36:55;;;;;;;3.67;3.17;;;;;;;18.10;59.02;96837.00;5090131;28;20496;-73
2023/08/29 00:39:20;;;;;;;3.13;2.83;;;;;;;18.11;59.13;96841.28;5089326;28;20213;-75
2023/08/29 00:41:49;;;;;;;4.70;2.80;;;;;;;18.10;59.10;96842.28;5081491;28;20178;-73
2023/08/29 00:44:15;;;;;;;8.70;3.00;;;;;;;18.10;59.14;96842.28;5086009;28;20189;-73
2023/08/29 00:46:41;;;;;;;3.30;3.00;;;;;;;18.09;59.21;96846.75;5089791;28;20450;-72
2023/08/29 00:49:06;;;;;;;4.57;2.90;;;;;;;18.09;59.36;96845.97;5085749;28;20500;-74
2023/08/29 00:51:32;;;;;;;3.73;2.73;;;;;;;18.08;59.52;96849.63;5055196;28;20468;-75
2023/08/29 00:53:57;;;;;;;9.10;2.90;;;;;;;18.09;59.39;96852.06;5076457;28;20178;-75
2023/08/29 00:56:23;;;;;;;3.30;3.00;;;;;;;18.09;59.40;96856.56;5059806;28;20210;-73
2023/08/29 00:58:49;;;;;;;4.13;2.50;;;;;;;18.11;59.30;96852.69;5069964;28;20570;-74
2023/08/29 01:01:16;;;;;;;5.33;3.17;;;;;;;18.13;59.33;96854.31;5077937;28;20427;-72
2023/08/29 01:03:42;;;;;;;3.27;2.97;;;;;;;18.10;59.19;96848.41;5089006;28;20191;-73
2023/08/29 01:06:08;;;;;;;9.00;3.20;;;;;;;18.08;59.36;96855.75;5081566;28;20481;-73
2023/08/29 01:08:34;;;;;;;7.17;3.30;;;;;;;18.07;59.38;96851.50;5060982;28;20831;-74
2023/08/29 01:11:12;;;;;;;5.97;3.10;;;;;;;18.04;59.49;96846.59;5065278;28;20459;-74
2023/08/29 01:13:44;;;;;;;8.33;3.30;;;;;;;18.02;59.59;96845.19;5065503;28;20217;-73
2023/08/29 01:16:10;;;;;;;5.63;3.17;;;;;;;17.99;59.70;96840.28;5083206;28;20501;-73
2023/08/29 01:18:37;;;;;;;3.27;2.97;;;;;;;17.95;59.86;96847.81;5063875;28;20536;-74
2023/08/29 01:21:28;;;;;;;3.50;3.20;;;;;;;17.96;59.93;96847.59;5072180;28;20479;-75
2023/08/29 01:24:00;;;;;;;4.40;2.93;;;;;;;17.98;59.83;96854.56;5055798;28;20427;-72
2023/08/29 01:26:26;;;;;;;3.60;3.30;;;;;;;17.99;59.86;96851.69;5061886;28;20507;-74
2023/08/29 01:28:52;;;;;;;2.93;2.73;;;;;;;17.99;59.89;96854.34;5059304;28;20449;-72
2023/08/29 01:31:19;;;;;;;4.77;3.07;;;;;;;17.99;59.72;96851.69;5077225;28;20476;-73
2023/08/29 01:33:44;;;;;;;2.90;2.53;;;;;;;18.01;59.92;96854.16;5067464;28;20424;-74
2023/08/29 01:36:09;;;;;;;6.83;5.20;;;;;;;18.00;59.99;96857.81;5053590;28;20940;-74
2023/08/29 01:38:35;;;;;;;6.90;5.23;;;;;;;17.99;60.17;96845.59;5078358;28;20220;-75
2023/08/29 01:41:00;;;;;;;7.60;4.20;;;;;;;18.00;60.30;96847.22;5082513;28;20220;-73
2023/08/29 01:43:26;;;;;;;6.57;4.90;;;;;;;18.00;60.25;96840.06;5080348;28;20327;-72
2023/08/29 01:45:51;;;;;;;6.90;3.90;;;;;;;17.98;60.40;96838.66;5081038;28;20213;-73
2023/08/29 01:48:17;;;;;;;4.57;3.87;;;;;;;18.00;60.31;96848.03;5083741;28;20354;-75
2023/08/29 01:50:42;;;;;;;3.53;3.30;;;;;;;17.99;60.33;96841.09;5077830;28;20210;-73
2023/08/29 01:53:08;;;;;;;5.37;4.23;;;;;;;18.01;60.14;96843.56;5067365;28;20193;-72
2023/08/29 01:55:34;;;;;;;3.73;3.43;;;;;;;18.01;60.27;96836.41;5066059;28;20196;-73
2023/08/29 01:58:02;;;;;;;4.03;3.57;;;;;;;17.99;60.09;96840.28;5080067;28;20198;-73
2023/08/29 02:00:27;;;;;;;4.80;3.80;;;;;;;17.96;60.36;96842.31;5035225;28;20451;-74
2023/08/29 02:02:53;;;;;;;3.60;3.30;;;;;;;17.95;60.32;96840.66;5067111;28;20799;-74
2023/08/29 02:05:18;;;;;;;3.20;3.00;;;;;;;17.96;60.39;96836.16;5085681;28;20198;-74
2023/08/29 02:07:44;;;;;;;6.07;3.43;;;;;;;17.98;60.23;96838.66;5075023;28;20246;-73
2023/08/29 02:10:10;;;;;;;3.13;2.90;;;;;;;17.92;60.51;96838.44;5084059;28;20213;-74
2023/08/29 02:12:36;;;;;;;6.33;3.17;;;;;;;17.92;60.77;96838.44;5084335;28;20225;-73
2023/08/29 02:15:02;;;;;;;4.10;3.30;;;;;;;17.93;61.04;96829.47;5079982;28;20952;-74
2023/08/29 02:17:28;;;;;;;4.43;3.53;;;;;;;17.94;60.55;96827.63;5088863;28;20200;-74
2023/08/29 02:19:53;;;;;;;3.93;3.53;;;;;;;17.91;60.71;96828.03;5084785;28;20451;-73
2023/08/29 02:22:18;;;;;;;8.00;3.33;;;;;;;17.92;60.90;96829.66;5085886;28;20276;-74
2023/08/29 02:24:47;;;;;;;3.30;3.00;;;;;;;17.95;60.73;96821.31;5072401;28;20286;-75
2023/08/29 02:27:13;;;;;;;4.73;3.30;;;;;;;17.93;60.80;96823.34;5059204;28;20223;-73
2023/08/29 02:29:38;;;;;;;5.83;3.70;;;;;;;17.93;61.00;96818.06;5090069;28;20451;-72
2023/08/29 02:32:04;;;;;;;4.43;3.60;;;;;;;17.92;60.96;96813.78;5078758;28;20709;-75
2023/08/29 02:34:29;;;;;;;5.73;2.93;;;;;;;17.92;60.98;96811.91;5092169;28;20410;-75
2023/08/29 02:36:55;;;;;;;3.30;3.00;;;;;;;17.93;61.32;96821.50;5084526;28;20950;-75
2023/08/29 02:39:20;;;;;;;3.87;3.57;;;;;;;17.95;61.15;96811.50;5077013;28;20862;-74
2023/08/29 02:41:46;;;;;;;4.30;4.00;;;;;;;17.94;60.97;96814.38;5080302;28;20297;-73
2023/08/29 02:44:11;;;;;;;4.57;4.10;;;;;;;17.92;61.06;96813.78;5080009;28;20197;-73
2023/08/29 02:46:36;;;;;;;4.10;3.70;;;;;;;17.95;61.02;96811.50;5083974;28;20194;-74
2023/08/29 02:49:02;;;;;;;4.23;3.80;;;;;;;17.95;60.94;96814.16;5078889;28;20305;-73
2023/08/29 02:51:27;;;;;;;5.30;3.70;;;;;;;17.96;61.08;96804.34;5088430;28;20248;-74
2023/08/29 02:53:53;;;;;;;8.23;5.40;;;;;;;17.96;60.97;96801.72;5091531;28;20216;-74
2023/08/29 02:56:19;;;;;;;8.33;5.10;;;;;;;17.99;61.19;96800.53;5057057;28;20217;-73
2023/08/29 02:58:46;;;;;;;4.10;3.70;;;;;;;17.98;61.11;96796.25;5092469;28;20267;-73
2023/08/29 03:01:12;;;;;;;4.60;3.57;;;;;;;17.94;60.92;96801.94;5091990;28;20428;-73
2023/08/29 03:03:38;;;;;;;5.60;3.70;;;;;;;17.98;60.96;96796.25;5082738;28;20436;-74
2023/08/29 03:06:03;;;;;;;5.23;3.70;;;;;;;17.96;61.44;96804.34;5088731;28;20654;-74
2023/08/29 03:08:29;;;;;;;4.63;4.20;;;;;;;17.95;61.45;96808.84;5091285;28;20305;-74
2023/08/29 03:10:54;;;;;;;6.07;4.10;;;;;;;17.98;61.48;96801.53;5071793;28;20621;-73
2023/08/29 03:13:21;;;;;;;5.03;4.03;;;;;;;17.94;61.69;96804.56;5070855;28;20586;-76
2023/08/29 03:15:47;;;;;;;9.63;3.27;;;;;;;17.98;62.01;96797.03;5090948;28;20276;-73
2023/08/29 03:18:12;;;;;;;4.40;4.00;;;;;;;17.98;61.38;96785.63;5068080;28;20531;-73
2023/08/29 03:20:44;;;;;;;3.57;3.27;;;;;;;17.95;61.40;96792.94;5071636;28;20195;-74
2023/08/29 03:23:10;;;;;;;6.23;3.10;;;;;;;17.93;61.23;96787.03;5091484;28;20200;-74
2023/08/29 03:25:36;;;;;;;4.93;3.40;;;;;;;17.88;61.31;96797.47;5081514;28;20436;-74
2023/08/29 03:28:02;;;;;;;6.43;3.83;;;;;;;17.91;61.82;96793.59;5071051;28;20489;-73
2023/08/29 03:30:28;;;;;;;4.27;3.00;;;;;;;17.90;61.92;96795.41;5078113;28;20342;-75
2023/08/29 03:32:54;;;;;;;3.77;3.47;;;;;;;17.88;62.21;96792.19;5055997;28;20448;-72
2023/08/29 03:35:19;;;;;;;3.27;2.70;;;;;;;17.89;62.27;96796.44;5057480;28;20876;-74
2023/08/29 03:37:45;;;;;;;4.60;3.67;;;;;;;17.88;61.71;96786.88;5072938;28;20323;-74
2023/08/29 03:40:11;;;;;;;7.13;3.20;;;;;;;17.85;61.58;96787.28;5083762;28;20213;-72
2023/08/29 03:42:37;;;;;;;4.23;3.13;;;;;;;17.85;61.60;96781.97;5081987;28;20191;-74
2023/08/29 03:45:03;;;;;;;4.20;3.80;;;;;;;17.86;61.64;96783.63;5080077;28;20919;-73
2023/08/29 03:47:30;;;;;;;5.00;3.70;;;;;;;17.90;61.45;96779.50;5083552;28;20281;-73
2023/08/29 03:49:55;;;;;;;4.03;3.40;;;;;;;17.88;61.10;96781.56;5086540;28;20458;-74
2023/08/29 03:52:22;;;;;;;3.60;3.23;;;;;;;17.90;61.27;96784.81;5070657;28;20464;-72
2023/08/29 03:54:48;;;;;;;3.70;3.40;;;;;;;17.93;61.37;96778.28;5062677;28;20231;-75
2023/08/29 03:57:13;;;;;;;3.93;3.40;;;;;;;17.94;61.02;96779.91;5078916;28;20468;-75
2023/08/29 03:59:39;;;;;;;3.97;3.57;;;;;;;17.92;61.21;96777.47;5070783;28;20214;-74
2023/08/29 04:02:06;;;;;;;4.17;3.10;;;;;;;17.94;61.58;96785.22;5077418;28;20265;-72
2023/08/29 04:04:32;;;;;;;5.33;3.63;;;;;;;17.91;61.62;96781.13;5078970;28;20198;-74
2023/08/29 04:06:59;;;;;;;6.60;3.90;;;;;;;17.88;61.78;96773.63;5085851;28;20442;-74
2023/08/29 04:09:24;;;;;;;4.10;3.80;;;;;;;17.87;61.81;96779.09;5084843;28;20829;-74
2023/08/29 04:11:50;;;;;;;12.20;3.87;;;;;;;17.87;61.78;96773.81;5046182;28;20475;-75
2023/08/29 04:14:15;;;;;;;3.73;3.13;;;;;;;17.85;61.60;96774.03;5081771;28;20194;-74
2023/08/29 04:16:41;;;;;;;7.00;3.70;;;;;;;17.80;61.83;96771.19;5080311;28;20281;-73
2023/08/29 04:19:07;;;;;;;4.10;3.80;;;;;;;17.81;61.89;96770.16;5052202;28;20214;-74
2023/08/29 04:21:32;;;;;;;4.40;3.80;;;;;;;17.84;61.82;96775.06;5070021;28;20281;-73
2023/08/29 04:23:59;;;;;;;9.03;4.70;;;;;;;17.85;62.12;96775.84;5079084;28;20427;-73
2023/08/29 04:26:25;;;;;;;4.53;4.23;;;;;;;17.84;61.79;96777.69;5083680;28;20203;-73
2023/08/29 04:28:50;;;;;;;5.00;4.60;;;;;;;17.82;61.90;96774.44;5084645;28;20463;-74
2023/08/29 04:31:17;;;;;;;5.50;5.00;;;;;;;17.79;62.23;96778.34;5089806;28;20209;-75
2023/08/29 04:33:42;;;;;;;7.93;5.20;;;;;;;17.79;62.19;96782.81;5089382;28;20193;-72
2023/08/29 04:36:08;;;;;;;6.43;5.43;;;;;;;17.75;62.37;96778.97;5074229;28;20428;-74
2023/08/29 04:38:34;;;;;;;5.40;4.90;;;;;;;17.72;62.67;96777.53;5076642;28;20246;-73
2023/08/29 04:40:59;;;;;;;6.57;5.97;;;;;;;17.75;62.68;96781.63;5080232;28;20191;-72
2023/08/29 04:43:26;;;;;;;5.73;5.20;;;;;;;17.75;62.77;96779.75;5081341;28;20640;-74
2023/08/29 04:45:52;;;;;;;9.57;5.80;;;;;;;17.75;62.79;96786.91;5081011;28;20194;-74
2023/08/29 04:48:17;;;;;;;11.63;6.00;;;;;;;17.75;62.91;96784.25;5058639;28;20448;-73
2023/08/29 04:50:45;;;;;;;7.33;6.60;;;;;;;17.78;62.92;96786.47;5031319;28;20301;-75
2023/08/29 04:53:11;;;;;;;6.40;5.90;;;;;;;17.79;62.95;96785.44;5038759;28;20189;-74
2023/08/29 04:55:37;;;;;;;8.00;6.50;;;;;;;17.80;62.90;96787.09;5010198;28;20505;-75
2023/08/29 04:58:02;;;;;;;7.30;6.60;;;;;;;17.77;62.80;96774.25;5059050;28;20440;-72
2023/08/29 05:00:28;;;;;;;7.00;6.40;;;;;;;17.78;62.99;96776.69;5077764;28;20190;-73
2023/08/29 05:02:54;;;;;;;6.17;5.60;;;;;;;17.80;63.25;96772.00;5069203;28;20552;-74
2023/08/29 05:05:20;;;;;;;11.30;7.63;;;;;;;17.80;63.43;96779.97;5076113;28;20440;-74
2023/08/29 05:07:45;;;;;;;7.27;6.57;;;;;;;17.80;63.62;96779.97;5076552;28;20432;-72
2023/08/29 05:10:11;;;;;;;9.07;7.20;;;;;;;17.84;63.68;96769.75;5070534;28;20259;-73
2023/08/29 05:12:36;;;;;;;9.30;7.70;;;;;;;17.86;63.66;96767.72;5054123;28;20289;-73
2023/08/29 05:15:02;;;;;;;8.17;7.47;;;;;;;17.85;63.76;96781.97;5079282;28;20201;-74
2023/08/29 05:17:27;;;;;;;12.30;7.40;;;;;;;17.85;63.87;96784.63;5089209;28;20189;-74
2023/08/29 05:19:54;;;;;;;8.27;7.10;;;;;;;17.86;64.03;96782.78;5089095;28;20222;-74
2023/08/29 05:22:20;;;;;;;9.57;7.73;;;;;;;17.83;64.52;96780.56;5089684;28;20292;-74
2023/08/29 05:24:45;;;;;;;11.00;8.30;;;;;;;17.83;64.52;96785.88;5086891;28;20522;-74
2023/08/29 05:27:11;;;;;;;8.73;7.60;;;;;;;17.84;64.68;96785.66;5084912;28;20680;-74
2023/08/29 05:29:36;;;;;;;8.73;7.93;;;;;;;17.78;64.46;96773.22;5075351;28;20340;-74
2023/08/29 05:32:02;;;;;;;9.80;8.03;;;;;;;17.81;64.70;96775.47;5079340;28;20251;-74
2023/08/29 05:34:27;;;;;;;9.33;8.43;;;;;;;17.83;65.02;96785.88;5083946;28;20221;-74
2023/08/29 05:36:53;;;;;;;9.00;8.00;;;;;;;17.82;64.90;96785.03;5078762;28;20264;-74
2023/08/29 05:39:19;;;;;;;14.63;8.40;;;;;;;17.78;65.05;96786.47;5073230;28;20215;-72
2023/08/29 05:41:45;;;;;;;11.63;8.47;;;;;;;17.79;65.21;96786.28;5089212;28;20177;-73
2023/08/29 05:44:10;;;;;;;9.73;8.80;;;;;;;17.81;65.34;96791.38;5080229;28;20428;-72
2023/08/29 05:46:36;;;;;;;10.47;9.47;;;;;;;17.83;65.35;96791.16;5082790;28;20243;-73
2023/08/29 05:49:01;;;;;;;11.47;9.60;;;;;;;17.82;65.40;96793.00;5080818;28;20210;-73
2023/08/29 05:51:27;;;;;;;9.00;8.10;;;;;;;17.82;65.77;96790.34;5089520;28;20209;-75
2023/08/29 05:53:53;;;;;;;9.33;8.40;;;;;;;17.86;65.80;96790.72;5080114;28;20178;-74
2023/08/29 05:56:19;;;;;;;10.03;9.00;;;;;;;17.86;65.84;96785.44;5081455;28;20194;-72
2023/08/29 05:58:44;;;;;;;9.40;8.50;;;;;;;17.87;66.08;96790.53;5088643;28;20473;-74
2023/08/29 06:01:11;;;;;;;16.83;9.40;;;;;;;17.87;66.23;96795.00;5069690;28;20196;-73
2023/08/29 06:03:36;;;;;;;9.87;8.87;;;;;;;17.88;66.29;96792.19;5073859;28;20186;-74
2023/08/29 06:06:03;;;;;;;10.47;9.40;;;;;;;17.92;66.56;96789.91;5085535;28;20777;-76
2023/08/29 06:08:29;;;;;;;9.70;8.70;;;;;;;17.95;66.36;96792.16;5064437;28;20217;-76
2023/08/29 06:10:54;;;;;;;9.70;8.80;;;;;;;17.92;66.27;96796.00;5088668;28;20665;-74
2023/08/29 06:13:20;;;;;;;9.90;8.80;;;;;;;17.96;66.36;96789.28;5071240;28;20535;-73
2023/08/29 06:15:45;;;;;;;11.00;9.67;;;;;;;17.96;65.91;96799.88;5085827;28;20218;-73
2023/08/29 06:18:11;;;;;;;10.60;8.90;;;;;;;17.92;66.03;96803.16;5076866;28;20229;-73
2023/08/29 06:20:36;;;;;;;10.50;9.40;;;;;;;17.94;66.10;96801.13;5077468;28;20830;-74
2023/08/29 06:23:03;;;;;;;10.07;9.10;;;;;;;17.92;65.97;96796.00;5086737;28;20840;-73
2023/08/29 06:25:28;;;;;;;10.30;9.30;;;;;;;17.94;66.06;96803.78;5075258;28;20324;-74
2023/08/29 06:27:54;;;;;;;10.33;8.70;;;;;;;17.90;66.17;96811.31;5078630;28;20515;-74
2023/08/29 06:30:20;;;;;;;9.43;8.53;;;;;;;17.92;66.37;96813.78;5080581;28;20217;-74
2023/08/29 06:32:45;;;;;;;10.90;9.60;;;;;;;17.94;66.67;96817.81;5088978;28;20193;-74
2023/08/29 06:35:11;;;;;;;9.47;8.53;;;;;;;17.94;66.59;96817.81;5088937;28;20186;-74
2023/08/29 06:37:37;;;;;;;11.97;9.57;;;;;;;17.94;66.41;96823.13;5089181;28;20208;-74
2023/08/29 06:40:06;;;;;;;14.30;9.10;;;;;;;17.93;66.43;96824.16;5082272;28;20817;-75
2023/08/29 06:42:32;;;;;;;9.73;7.87;;;;;;;17.95;66.40;96818.66;5085959;28;20435;-74
2023/08/29 06:44:58;;;;;;;10.53;9.43;;;;;;;17.94;66.69;96838.25;5076131;28;20528;-74
2023/08/29 06:47:24;;;;;;;10.00;9.00;;;;;;;17.94;66.84;96832.94;5083257;28;20182;-72
2023/08/29 06:49:50;;;;;;;11.97;9.70;;;;;;;17.92;66.79;96835.78;5066293;28;20451;-73
2023/08/29 06:52:15;;;;;;;10.20;9.30;;;;;;;17.92;66.74;96845.56;5092411;28;20466;-73
2023/08/29 06:54:41;;;;;;;9.50;8.70;;;;;;;17.92;67.10;96846.38;5092899;28;20257;-74
2023/08/29 06:57:06;;;;;;;11.30;8.90;;;;;;;17.92;67.05;96843.72;5082737;28;20242;-74
2023/08/29 06:59:31;;;;;;;12.00;8.03;;;;;;;17.90;67.15;96848.41;5085725;28;20212;-74
2023/08/29 07:01:57;;;;;;;11.07;8.67;;;;;;;17.92;67.04;96856.19;5091837;28;20303;-74
2023/08/29 07:04:22;;;;;;;10.20;9.20;;;;;;;17.92;67.36;96846.38;5083942;28;20213;-72
2023/08/29 07:06:48;;;;;;;9.67;8.67;;;;;;;17.94;67.79;96854.13;5084021;28;20185;-73
2023/08/29 07:09:16;;;;;;;10.90;8.40;;;;;;;17.94;67.50;96854.13;5091617;28;20578;-72
2023/08/29 07:11:41;;;;;;;10.23;8.60;;;;;;;17.95;67.66;96851.28;5083786;28;20681;-75
2023/08/29 07:14:06;;;;;;;12.90;8.83;;;;;;;17.96;67.85;96854.72;5090831;28;20425;-73
2023/08/29 07:16:32;;;;;;;10.60;9.50;;;;;;;17.96;67.91;96862.69;5081507;28;20866;-72
2023/08/29 07:18:58;;;;;;;13.03;10.03;;;;;;;17.92;67.71;96854.34;5075031;28;20280;-73
2023/08/29 07:21:24;;;;;;;12.93;9.37;;;;;;;17.94;67.88;96860.25;5083924;28;20182;-74
2023/08/29 07:23:49;;;;;;;9.70;8.80;;;;;;;17.98;67.79;96865.16;5065869;28;20434;-72
2023/08/29 07:26:15;;;;;;;10.23;9.33;;;;;;;17.98;67.49;96862.53;5065204;28;20709;-74
2023/08/29 07:28:40;;;;;;;11.30;9.77;;;;;;;17.98;67.31;96870.47;5083883;28;20669;-75
2023/08/29 07:31:06;;;;;;;10.33;9.23;;;;;;;18.01;67.48;96860.25;5074914;28;20218;-74
2023/08/29 07:33:31;;;;;;;12.23;9.67;;;;;;;18.04;67.24;96870.47;5044820;28;20187;-73
2023/08/29 07:35:57;;;;;;;14.30;9.03;;;;;;;18.06;66.91;96878.19;5062032;28;20499;-73
2023/08/29 07:38:23;;;;;;;11.30;8.80;;;;;;;18.11;66.85;96873.09;5079644;28;20182;-74
2023/08/29 07:40:48;;;;;;;9.90;8.90;;;;;;;18.17;66.72;96874.88;5086843;28;20184;-74
2023/08/29 07:43:15;;;;;;;12.37;8.30;;;;;;;18.23;66.90;96876.72;5080989;28;20708;-73
2023/08/29 07:45:40;;;;;;;10.47;9.37;;;;;;;18.25;66.82;96882.63;5086284;28;20663;-73
2023/08/29 07:48:06;;;;;;;11.50;9.00;;;;;;;18.30;67.06;96889.97;5080831;28;20443;-74
2023/08/29 07:50:32;;;;;;;14.67;8.00;;;;;;;18.33;66.86;96883.41;5054714;28;20671;-74
2023/08/29 07:52:58;;;;;;;10.37;7.90;;;;;;;18.34;66.69;96890.34;5091718;28;20261;-74
2023/08/29 07:55:24;;;;;;;13.07;8.67;;;;;;;18.34;66.91;96890.34;5091137;28;20185;-74
2023/08/29 07:57:49;;;;;;;11.47;8.33;;;;;;;18.31;66.72;96890.75;5092085;28;20404;-73
2023/08/29 08:00:16;;;;;;;10.73;7.80;;;;;;;18.30;66.86;96895.25;5082481;28;20835;-72
2023/08/29 08:02:42;;;;;;;8.57;7.77;;;;;;;18.32;66.69;96892.41;5091785;28;20255;-74
2023/08/29 08:05:09;;;;;;;8.33;7.50;;;;;;;18.32;66.73;96903.00;5064383;28;20420;-73
2023/08/29 08:07:34;;;;;;;9.23;7.53;;;;;;;18.31;66.86;96896.06;5082764;28;20265;-72
2023/08/29 08:09:59;;;;;;;8.40;7.60;;;;;;;18.33;66.79;96899.34;5082342;28;20524;-74
2023/08/29 08:12:25;;;;;;;8.03;7.23;;;;;;;18.32;66.50;96897.69;5082431;28;20296;-74
2023/08/29 08:14:52;;;;;;;10.00;6.73;;;;;;;18.31;66.88;96899.56;5082849;28;20232;-74
2023/08/29 08:17:18;;;;;;;7.77;7.00;;;;;;;18.30;66.96;96889.97;5083186;28;20754;-73
2023/08/29 08:19:43;;;;;;;9.33;7.57;;;;;;;18.32;67.04;96882.63;5090522;28;20440;-73
2023/08/29 08:22:10;;;;;;;9.73;8.13;;;;;;;18.34;67.00;96891.16;5090720;28;20634;-74
2023/08/29 08:24:35;;;;;;;13.23;7.97;;;;;;;18.38;67.16;96899.53;5090055;28;20182;-73
2023/08/29 08:27:01;;;;;;;11.53;8.33;;;;;;;18.39;67.12;96893.19;5082730;28;20798;-74
2023/08/29 08:29:26;;;;;;;11.33;7.13;;;;;;;18.42;67.05;96892.75;5090324;28;20225;-73
2023/08/29 08:31:51;;;;;;;10.73;7.20;;;;;;;18.44;67.00;96889.91;5082322;28;20296;-72
2023/08/29 08:34:17;;;;;;;8.53;7.73;;;;;;;18.45;66.84;96892.34;5064695;28;20190;-73
2023/08/29 08:36:42;;;;;;;8.60;7.80;;;;;;;18.49;66.82;96893.56;5085144;28;20229;-73
2023/08/29 08:39:08;;;;;;;9.53;7.80;;;;;;;18.53;66.68;96902.72;5087104;28;20213;-73
2023/08/29 08:41:33;;;;;;;8.63;7.90;;;;;;;18.54;66.39;96912.31;5086954;28;20178;-74
2023/08/29 08:44:03;;;;;;;12.00;7.73;;;;;;;18.56;66.55;96902.28;5070758;28;20194;-73
2023/08/29 08:46:28;;;;;;;9.43;8.63;;;;;;;18.59;66.74;96906.38;5060723;28;20269;-74
2023/08/29 08:48:54;;;;;;;8.90;8.00;;;;;;;18.65;66.76;96907.38;5059483;28;20538;-73
2023/08/29 08:51:22;;;;;;;14.73;8.00;;;;;;;18.70;66.62;96907.53;5083053;28;20295;-73
2023/08/29 08:53:49;;;;;;;9.03;8.00;;;;;;;18.70;66.72;96908.38;5073364;28;20193;-74
2023/08/29 08:56:14;;;;;;;8.37;7.63;;;;;;;18.69;66.18;96913.88;5056362;28;20959;-74
2023/08/29 08:58:40;;;;;;;10.87;9.80;;;;;;;18.67;66.13;96916.75;5082172;28;20471;-75
2023/08/29 09:01:05;;;;;;;8.23;7.53;;;;;;;18.68;66.28;96914.91;5074007;28;20193;-74
2023/08/29 09:03:31;;;;;;;8.87;8.00;;;;;;;18.71;66.51;96909.97;5087664;28;20193;-75
2023/08/29 09:05:56;;;;;;;9.07;8.23;;;;;;;18.73;66.54;96899.16;5083780;28;20186;-74
2023/08/29 09:08:22;;;;;;;11.07;7.40;;;;;;;18.75;66.43;96913.06;5079948;28;20247;-73
2023/08/29 09:10:51;;;;;;;8.40;7.70;;;;;;;18.75;66.27;96905.09;5052441;28;20225;-74
2023/08/29 09:13:16;;;;;;;7.37;6.73;;;;;;;18.75;66.05;96902.44;5035686;28;20563;-74
2023/08/29 09:15:42;;;;;;;10.67;9.67;;;;;;;18.79;66.39;96900.97;5078813;28;20474;-72
2023/08/29 09:18:13;;;;;;;14.13;11.53;;;;;;;18.81;66.31;96912.19;5067842;28;20194;-77
2023/08/29 09:20:42;;;;;;;13.23;10.83;;;;;;;18.87;66.60;96910.53;5058043;28;20244;-74
2023/08/29 09:23:24;;;;;;;12.07;8.90;;;;;;;18.90;66.43;96909.31;5060503;28;20988;-74
2023/08/29 09:25:59;;;;;;;10.40;9.30;;;;;;;18.94;66.47;96915.81;5083603;28;20442;-74
2023/08/29 09:28:30;;;;;;;9.40;8.50;;;;;;;18.93;66.02;96916.81;5088125;28;20854;-72
2023/08/29 09:31:04;;;;;;;9.53;8.03;;;;;;;18.88;65.81;96912.97;5089512;28;20525;-73
2023/08/29 09:33:29;;;;;;;9.10;7.83;;;;;;;18.91;66.03;96921.53;5089465;28;20561;-72
2023/08/29 09:35:55;;;;;;;9.00;8.20;;;;;;;18.91;66.06;96922.34;5083538;28;20447;-73
2023/08/29 09:38:20;;;;;;;8.50;7.70;;;;;;;18.92;65.98;96916.03;5067686;28;20276;-75
2023/08/29 09:40:50;;;;;;;8.80;7.70;;;;;;;18.91;65.74;96909.06;5082835;28;20279;-72
2023/08/29 09:43:16;;;;;;;7.63;7.03;;;;;;;18.90;65.49;96914.63;5080663;28;20194;-74
2023/08/29 09:45:47;;;;;;;8.43;7.63;;;;;;;18.91;65.72;96919.69;5085632;28;20494;-74
2023/08/29 09:48:13;;;;;;;7.90;7.10;;;;;;;18.95;65.84;96928.91;5054975;28;20420;-73
2023/08/29 09:50:39;;;;;;;7.00;6.30;;;;;;;19.00;65.68;96925.63;5086162;28;20432;-74
2023/08/29 09:53:05;;;;;;;8.77;7.97;;;;;;;19.03;65.54;96919.84;5051633;28;20220;-73
2023/08/29 09:55:39;;;;;;;10.13;8.30;;;;;;;19.05;65.24;96923.13;5078174;28;20929;-73
2023/08/29 09:58:06;;;;;;;8.57;7.60;;;;;;;19.06;65.24;96915.97;5051727;28;20431;-74
2023/08/29 10:00:33;;;;;;;8.93;8.03;;;;;;;19.09;65.08;96919.00;5088097;28;20905;-74
2023/08/29 10:03:00;;;;;;;8.30;7.70;;;;;;;19.15;65.11;96925.31;5073558;28;20500;-73
2023/08/29 10:05:33;;;;;;;9.03;8.10;;;;;;;19.17;65.04;96924.06;5042986;28;20436;-75
2023/08/29 10:08:03;;;;;;;8.80;7.90;;;;;;;19.21;64.92;96921.81;5089915;28;20424;-74
2023/08/29 10:10:28;;;;;;;8.20;7.47;;;;;;;19.23;64.84;96917.06;5080841;28;20535;-73
2023/08/29 10:12:54;;;;;;;8.50;7.90;;;;;;;19.34;64.64;96923.53;5089445;28;20538;-73
2023/08/29 10:15:20;;;;;;;9.70;8.80;;;;;;;19.38;64.30;96922.09;5076169;28;20186;-74
2023/08/29 10:17:46;;;;;;;10.20;9.20;;;;;;;19.43;64.41;96924.09;5066547;28;20428;-73
2023/08/29 10:20:12;;;;;;;10.27;9.40;;;;;;;19.46;64.66;96916.50;5058640;28;20201;-73
2023/08/29 10:22:41;;;;;;;9.07;8.30;;;;;;;19.47;64.26;96928.78;5074766;28;20197;-74
2023/08/29 10:25:07;;;;;;;9.53;8.63;;;;;;;19.48;63.88;96925.09;5092861;28;20416;-73
2023/08/29 10:27:33;;;;;;;10.23;9.23;;;;;;;19.50;63.92;96919.53;5083904;28;20435;-74
2023/08/29 10:30:01;;;;;;;8.77;8.07;;;;;;;19.53;63.82;96920.97;5061262;28;20202;-74
2023/08/29 10:32:27;;;;;;;14.63;8.67;;;;;;;19.59;64.00;96917.44;5090705;28;20459;-72
2023/08/29 10:34:52;;;;;;;9.13;8.33;;;;;;;19.64;63.64;96914.94;5075425;28;20424;-73
2023/08/29 10:37:19;;;;;;;9.67;8.77;;;;;;;19.70;63.27;96919.38;5092887;28;20433;-73
2023/08/29 10:39:45;;;;;;;9.30;8.30;;;;;;;19.74;63.59;96915.28;5088775;28;20616;-74
2023/08/29 10:42:13;;;;;;;10.07;8.73;;;;;;;19.76;63.30;96915.88;5088227;28;20518;-74
2023/08/29 10:44:41;;;;;;;10.30;8.80;;;;;;;19.77;63.17;96919.31;5090497;28;20225;-75
2023/08/29 10:47:23;;;;;;;8.53;7.73;;;;;;;19.76;62.63;96917.69;5080288;28;20474;-75
2023/08/29 10:49:56;;;;;;;8.57;7.37;;;;;;;19.71;62.85;96917.56;5092736;28;20493;-74
2023/08/29 10:52:21;;;;;;;8.70;7.80;;;;;;;19.68;62.99;96915.31;5092743;28;20924;-74
2023/08/29 10:54:47;;;;;;;9.20;8.43;;;;;;;19.65;62.88;96912.06;5093252;28;20514;-73
2023/08/29 10:57:28;;;;;;;14.43;8.43;;;;;;;19.65;63.54;96909.41;5085201;28;20547;-75
2023/08/29 10:59:54;;;;;;;9.30;8.40;;;;;;;19.68;63.67;96910.81;5060575;28;20266;-73
2023/08/29 11:02:27;;;;;;;8.57;7.80;;;;;;;19.70;64.13;96902.63;5076199;28;20519;-74
2023/08/29 11:05:13;;;;;;;9.30;8.50;;;;;;;19.70;64.17;96914.06;5088289;28;20429;-73
2023/08/29 11:07:39;;;;;;;12.23;8.27;;;;;;;19.68;64.04;96910.81;5080270;28;20820;-74
2023/08/29 11:10:14;;;;;;;9.43;8.17;;;;;;;19.62;64.07;96917.81;5086741;28;20459;-74
2023/08/29 11:13:09;;;;;;;9.10;8.20;;;;;;;19.59;64.24;96904.16;5064888;28;20692;-73
2023/08/29 11:15:49;;;;;;;9.47;8.53;;;;;;;19.58;64.71;96913.16;5087294;28;20499;-73
2023/08/29 11:18:30;;;;;;;8.77;7.93;;;;;;;19.54;64.80;96911.94;5087297;28;20916;-73
2023/08/29 11:20:56;;;;;;;10.47;9.47;;;;;;;19.48;64.93;96906.47;5076480;28;20420;-73
2023/08/29 11:23:22;;;;;;;9.53;8.77;;;;;;;19.46;65.18;96903.22;5082921;28;20574;-74
2023/08/29 11:25:51;;;;;;;10.40;9.13;;;;;;;19.43;65.68;96901.00;5082379;28;20608;-73
2023/08/29 11:28:17;;;;;;;11.60;10.50;;;;;;;19.44;65.27;96899.97;5082615;28;20416;-73